sensor_id;sensor_type;location;lat;lon;timestamp;temperature;humidity
53802;DHT22;39709;53.334;6.534;2022-10-13T00:00:30;9.40;39.60
53802;DHT22;39709;53.334;6.534;2022-10-13T00:02:59;9.40;32.50
53802;DHT22;39709;53.334;6.534;2022-10-13T00:05:26;9.40;47.30
53802;DHT22;39709;53.334;6.534;2022-10-13T00:07:51;9.40;53.40
53802;DHT22;39709;53.334;6.534;2022-10-13T00:10:17;9.40;64.10
53802;DHT22;39709;53.334;6.534;2022-10-13T00:12:43;9.40;69.10
53802;DHT22;39709;53.334;6.534;2022-10-13T00:15:09;9.30;71.90
53802;DHT22;39709;53.334;6.534;2022-10-13T00:17:35;9.30;77.40
53802;DHT22;39709;53.334;6.534;2022-10-13T00:20:02;9.30;77.50
53802;DHT22;39709;53.334;6.534;2022-10-13T00:22:28;9.30;88.60
53802;DHT22;39709;53.334;6.534;2022-10-13T00:24:55;9.20;75.60
53802;DHT22;39709;53.334;6.534;2022-10-13T00:27:21;9.40;78.60
53802;DHT22;39709;53.334;6.534;2022-10-13T00:29:46;9.40;80.80
53802;DHT22;39709;53.334;6.534;2022-10-13T00:32:12;9.40;84.80
53802;DHT22;39709;53.334;6.534;2022-10-13T00:34:38;9.30;87.40
53802;DHT22;39709;53.334;6.534;2022-10-13T00:37:04;9.40;87.10
53802;DHT22;39709;53.334;6.534;2022-10-13T00:39:30;9.60;87.40
53802;DHT22;39709;53.334;6.534;2022-10-13T00:41:57;9.60;85.60
53802;DHT22;39709;53.334;6.534;2022-10-13T00:44:58;9.40;87.20
53802;DHT22;39709;53.334;6.534;2022-10-13T00:47:27;9.40;94.90
53802;DHT22;39709;53.334;6.534;2022-10-13T00:49:55;9.50;90.80
53802;DHT22;39709;53.334;6.534;2022-10-13T00:52:22;9.50;79.80
53802;DHT22;39709;53.334;6.534;2022-10-13T00:54:49;9.40;83.10
53802;DHT22;39709;53.334;6.534;2022-10-13T00:57:17;9.80;88.90
53802;DHT22;39709;53.334;6.534;2022-10-13T00:59:43;9.40;86.00
53802;DHT22;39709;53.334;6.534;2022-10-13T01:02:09;9.60;86.90
53802;DHT22;39709;53.334;6.534;2022-10-13T01:04:44;9.60;79.00
53802;DHT22;39709;53.334;6.534;2022-10-13T01:31:10;9.40;98.70
53802;DHT22;39709;53.334;6.534;2022-10-13T01:33:58;9.30;95.40
53802;DHT22;39709;53.334;6.534;2022-10-13T01:39:27;9.30;99.00
53802;DHT22;39709;53.334;6.534;2022-10-13T01:42:03;9.40;99.90
53802;DHT22;39709;53.334;6.534;2022-10-13T01:44:39;9.30;99.90
53802;DHT22;39709;53.334;6.534;2022-10-13T01:47:07;9.40;99.90
53802;DHT22;39709;53.334;6.534;2022-10-13T01:49:34;9.30;99.90
53802;DHT22;39709;53.334;6.534;2022-10-13T01:52:14;9.30;99.90
53802;DHT22;39709;53.334;6.534;2022-10-13T01:54:40;9.50;99.90
53802;DHT22;39709;53.334;6.534;2022-10-13T01:57:30;9.40;99.90
53802;DHT22;39709;53.334;6.534;2022-10-13T01:59:59;9.20;99.90
53802;DHT22;39709;53.334;6.534;2022-10-13T02:02:43;9.30;99.90
53802;DHT22;39709;53.334;6.534;2022-10-13T02:13:11;9.20;99.90
53802;DHT22;39709;53.334;6.534;2022-10-13T02:15:45;9.30;99.90
53802;DHT22;39709;53.334;6.534;2022-10-13T02:18:14;9.20;99.90
53802;DHT22;39709;53.334;6.534;2022-10-13T02:20:42;9.30;99.90
53802;DHT22;39709;53.334;6.534;2022-10-13T02:23:12;9.40;99.90
53802;DHT22;39709;53.334;6.534;2022-10-13T02:25:39;9.50;99.90
53802;DHT22;39709;53.334;6.534;2022-10-13T02:28:06;9.10;99.90
53802;DHT22;39709;53.334;6.534;2022-10-13T02:30:33;9.40;99.90
53802;DHT22;39709;53.334;6.534;2022-10-13T02:33:00;9.30;99.90
53802;DHT22;39709;53.334;6.534;2022-10-13T02:35:26;9.30;99.90
53802;DHT22;39709;53.334;6.534;2022-10-13T02:37:52;9.30;99.90
53802;DHT22;39709;53.334;6.534;2022-10-13T02:40:18;9.30;99.90
53802;DHT22;39709;53.334;6.534;2022-10-13T02:42:44;9.50;99.90
53802;DHT22;39709;53.334;6.534;2022-10-13T02:45:10;9.30;99.90
53802;DHT22;39709;53.334;6.534;2022-10-13T02:47:35;9.40;99.90
53802;DHT22;39709;53.334;6.534;2022-10-13T02:50:01;9.40;99.90
53802;DHT22;39709;53.334;6.534;2022-10-13T02:52:27;9.20;99.90
53802;DHT22;39709;53.334;6.534;2022-10-13T02:54:53;9.50;99.90
53802;DHT22;39709;53.334;6.534;2022-10-13T02:57:19;9.50;99.90
53802;DHT22;39709;53.334;6.534;2022-10-13T02:59:44;9.40;99.90
53802;DHT22;39709;53.334;6.534;2022-10-13T03:02:10;9.50;99.90
53802;DHT22;39709;53.334;6.534;2022-10-13T03:04:36;9.60;99.90
53802;DHT22;39709;53.334;6.534;2022-10-13T03:07:01;9.40;99.90
53802;DHT22;39709;53.334;6.534;2022-10-13T03:09:27;9.50;99.90
53802;DHT22;39709;53.334;6.534;2022-10-13T03:11:53;9.40;99.90
53802;DHT22;39709;53.334;6.534;2022-10-13T03:14:19;9.50;99.90
53802;DHT22;39709;53.334;6.534;2022-10-13T03:16:44;9.40;99.90
53802;DHT22;39709;53.334;6.534;2022-10-13T03:19:10;9.80;99.90
53802;DHT22;39709;53.334;6.534;2022-10-13T03:21:37;9.40;99.90
53802;DHT22;39709;53.334;6.534;2022-10-13T03:24:03;9.40;99.90
53802;DHT22;39709;53.334;6.534;2022-10-13T03:26:32;9.40;99.90
53802;DHT22;39709;53.334;6.534;2022-10-13T03:28:58;9.40;99.90
53802;DHT22;39709;53.334;6.534;2022-10-13T03:31:24;9.50;99.90
53802;DHT22;39709;53.334;6.534;2022-10-13T03:33:50;10.00;99.90
53802;DHT22;39709;53.334;6.534;2022-10-13T03:36:16;9.40;99.90
53802;DHT22;39709;53.334;6.534;2022-10-13T03:38:42;9.60;99.90
53802;DHT22;39709;53.334;6.534;2022-10-13T03:41:13;9.80;99.90
53802;DHT22;39709;53.334;6.534;2022-10-13T03:43:40;9.30;99.90
53802;DHT22;39709;53.334;6.534;2022-10-13T03:46:07;9.40;99.90
53802;DHT22;39709;53.334;6.534;2022-10-13T03:48:34;9.40;99.90
53802;DHT22;39709;53.334;6.534;2022-10-13T03:51:07;9.30;99.90
53802;DHT22;39709;53.334;6.534;2022-10-13T03:53:33;9.60;99.90
53802;DHT22;39709;53.334;6.534;2022-10-13T03:55:59;9.30;99.90
53802;DHT22;39709;53.334;6.534;2022-10-13T03:58:25;9.40;99.90
53802;DHT22;39709;53.334;6.534;2022-10-13T04:00:53;9.30;99.90
53802;DHT22;39709;53.334;6.534;2022-10-13T04:03:19;9.40;99.90
53802;DHT22;39709;53.334;6.534;2022-10-13T04:05:45;9.40;99.90
53802;DHT22;39709;53.334;6.534;2022-10-13T04:08:11;9.40;99.90
53802;DHT22;39709;53.334;6.534;2022-10-13T04:10:37;9.30;99.90
53802;DHT22;39709;53.334;6.534;2022-10-13T04:13:03;9.20;99.90
53802;DHT22;39709;53.334;6.534;2022-10-13T04:15:30;9.30;99.90
53802;DHT22;39709;53.334;6.534;2022-10-13T04:17:56;9.20;99.90
53802;DHT22;39709;53.334;6.534;2022-10-13T04:20:21;9.30;99.90
53802;DHT22;39709;53.334;6.534;2022-10-13T04:22:47;9.40;99.90
53802;DHT22;39709;53.334;6.534;2022-10-13T04:25:13;9.80;99.90
53802;DHT22;39709;53.334;6.534;2022-10-13T04:27:38;9.50;99.90
53802;DHT22;39709;53.334;6.534;2022-10-13T04:30:05;9.50;99.90
53802;DHT22;39709;53.334;6.534;2022-10-13T04:32:31;9.30;99.90
53802;DHT22;39709;53.334;6.534;2022-10-13T04:34:57;9.30;99.90
53802;DHT22;39709;53.334;6.534;2022-10-13T04:37:23;9.50;99.90
53802;DHT22;39709;53.334;6.534;2022-10-13T04:39:49;9.20;99.90
53802;DHT22;39709;53.334;6.534;2022-10-13T04:42:14;9.30;99.90
53802;DHT22;39709;53.334;6.534;2022-10-13T04:44:40;9.20;99.90
53802;DHT22;39709;53.334;6.534;2022-10-13T04:47:06;9.40;99.90
53802;DHT22;39709;53.334;6.534;2022-10-13T04:49:33;9.40;99.90
53802;DHT22;39709;53.334;6.534;2022-10-13T04:51:58;9.20;99.90
53802;DHT22;39709;53.334;6.534;2022-10-13T04:54:24;9.60;99.90
53802;DHT22;39709;53.334;6.534;2022-10-13T04:56:49;9.60;99.90
53802;DHT22;39709;53.334;6.534;2022-10-13T04:59:15;9.40;99.90
53802;DHT22;39709;53.334;6.534;2022-10-13T05:01:41;9.70;99.90
53802;DHT22;39709;53.334;6.534;2022-10-13T05:04:08;9.40;99.90
53802;DHT22;39709;53.334;6.534;2022-10-13T05:06:36;9.70;99.90
53802;DHT22;39709;53.334;6.534;2022-10-13T05:09:03;9.70;99.90
53802;DHT22;39709;53.334;6.534;2022-10-13T05:11:29;9.50;99.90
53802;DHT22;39709;53.334;6.534;2022-10-13T05:13:56;9.50;99.90
53802;DHT22;39709;53.334;6.534;2022-10-13T05:16:22;9.60;99.90
53802;DHT22;39709;53.334;6.534;2022-10-13T05:18:50;9.80;99.90
53802;DHT22;39709;53.334;6.534;2022-10-13T05:21:21;9.80;99.90
53802;DHT22;39709;53.334;6.534;2022-10-13T05:23:48;9.40;99.90
53802;DHT22;39709;53.334;6.534;2022-10-13T05:26:17;9.60;99.90
53802;DHT22;39709;53.334;6.534;2022-10-13T05:28:43;9.60;99.90
53802;DHT22;39709;53.334;6.534;2022-10-13T05:31:10;9.80;99.90
53802;DHT22;39709;53.334;6.534;2022-10-13T05:33:37;9.90;99.90
53802;DHT22;39709;53.334;6.534;2022-10-13T05:36:04;9.50;99.90
53802;DHT22;39709;53.334;6.534;2022-10-13T05:38:30;9.80;99.90
53802;DHT22;39709;53.334;6.534;2022-10-13T05:41:01;9.90;99.90
53802;DHT22;39709;53.334;6.534;2022-10-13T05:43:27;10.00;99.90
53802;DHT22;39709;53.334;6.534;2022-10-13T05:45:54;9.90;99.90
53802;DHT22;39709;53.334;6.534;2022-10-13T05:48:20;9.90;99.90
53802;DHT22;39709;53.334;6.534;2022-10-13T05:50:45;9.70;99.90
53802;DHT22;39709;53.334;6.534;2022-10-13T05:53:11;9.40;99.90
53802;DHT22;39709;53.334;6.534;2022-10-13T05:55:37;9.50;99.90
53802;DHT22;39709;53.334;6.534;2022-10-13T05:58:03;9.50;99.90
53802;DHT22;39709;53.334;6.534;2022-10-13T06:00:29;9.50;99.90
53802;DHT22;39709;53.334;6.534;2022-10-13T06:03:01;9.50;99.90
53802;DHT22;39709;53.334;6.534;2022-10-13T06:05:28;9.50;99.90
53802;DHT22;39709;53.334;6.534;2022-10-13T06:07:57;9.50;99.90
53802;DHT22;39709;53.334;6.534;2022-10-13T06:10:23;9.80;99.90
53802;DHT22;39709;53.334;6.534;2022-10-13T06:12:49;10.00;99.90
53802;DHT22;39709;53.334;6.534;2022-10-13T06:15:15;9.60;99.90
53802;DHT22;39709;53.334;6.534;2022-10-13T06:17:41;9.60;99.90
53802;DHT22;39709;53.334;6.534;2022-10-13T06:20:07;9.60;99.90
53802;DHT22;39709;53.334;6.534;2022-10-13T06:22:34;9.60;99.90
53802;DHT22;39709;53.334;6.534;2022-10-13T06:25:00;9.70;99.90
53802;DHT22;39709;53.334;6.534;2022-10-13T06:27:27;10.00;99.90
53802;DHT22;39709;53.334;6.534;2022-10-13T06:29:53;10.10;99.90
53802;DHT22;39709;53.334;6.534;2022-10-13T06:32:19;9.90;99.90
53802;DHT22;39709;53.334;6.534;2022-10-13T06:34:45;9.80;99.90
53802;DHT22;39709;53.334;6.534;2022-10-13T06:37:11;9.60;99.90
53802;DHT22;39709;53.334;6.534;2022-10-13T06:39:36;9.70;99.90
53802;DHT22;39709;53.334;6.534;2022-10-13T06:42:02;9.80;99.90
53802;DHT22;39709;53.334;6.534;2022-10-13T06:44:29;10.00;99.90
53802;DHT22;39709;53.334;6.534;2022-10-13T06:46:56;10.20;99.90
53802;DHT22;39709;53.334;6.534;2022-10-13T06:49:22;10.00;99.90
53802;DHT22;39709;53.334;6.534;2022-10-13T06:51:48;9.90;99.90
53802;DHT22;39709;53.334;6.534;2022-10-13T06:54:14;9.90;99.90
53802;DHT22;39709;53.334;6.534;2022-10-13T06:56:40;9.90;99.90
53802;DHT22;39709;53.334;6.534;2022-10-13T06:59:06;10.20;99.90
53802;DHT22;39709;53.334;6.534;2022-10-13T07:01:31;10.10;99.90
53802;DHT22;39709;53.334;6.534;2022-10-13T07:03:57;10.00;99.90
53802;DHT22;39709;53.334;6.534;2022-10-13T07:06:23;10.10;99.90
53802;DHT22;39709;53.334;6.534;2022-10-13T07:08:49;10.30;99.90
53802;DHT22;39709;53.334;6.534;2022-10-13T07:11:15;10.10;99.90
53802;DHT22;39709;53.334;6.534;2022-10-13T07:13:41;10.30;99.90
53802;DHT22;39709;53.334;6.534;2022-10-13T07:16:08;10.20;99.90
53802;DHT22;39709;53.334;6.534;2022-10-13T07:18:34;10.60;99.90
53802;DHT22;39709;53.334;6.534;2022-10-13T07:21:00;10.60;99.90
53802;DHT22;39709;53.334;6.534;2022-10-13T07:23:26;10.30;99.90
53802;DHT22;39709;53.334;6.534;2022-10-13T07:25:52;10.40;99.90
53802;DHT22;39709;53.334;6.534;2022-10-13T07:28:19;10.50;99.90
53802;DHT22;39709;53.334;6.534;2022-10-13T07:30:45;10.50;99.90
53802;DHT22;39709;53.334;6.534;2022-10-13T07:33:10;10.70;99.90
53802;DHT22;39709;53.334;6.534;2022-10-13T07:35:37;10.90;99.90
53802;DHT22;39709;53.334;6.534;2022-10-13T07:38:05;10.60;99.90
53802;DHT22;39709;53.334;6.534;2022-10-13T07:40:31;10.60;99.90
53802;DHT22;39709;53.334;6.534;2022-10-13T07:42:56;10.80;99.90
53802;DHT22;39709;53.334;6.534;2022-10-13T07:45:22;11.00;99.90
53802;DHT22;39709;53.334;6.534;2022-10-13T07:47:48;11.10;99.90
53802;DHT22;39709;53.334;6.534;2022-10-13T07:50:14;11.00;99.90
53802;DHT22;39709;53.334;6.534;2022-10-13T07:52:39;11.20;99.90
53802;DHT22;39709;53.334;6.534;2022-10-13T07:55:05;11.30;99.90
53802;DHT22;39709;53.334;6.534;2022-10-13T07:57:31;11.20;99.90
53802;DHT22;39709;53.334;6.534;2022-10-13T07:59:57;11.40;99.90
53802;DHT22;39709;53.334;6.534;2022-10-13T08:02:23;11.10;99.90
53802;DHT22;39709;53.334;6.534;2022-10-13T08:04:49;11.20;99.90
53802;DHT22;39709;53.334;6.534;2022-10-13T08:07:14;11.50;99.90
53802;DHT22;39709;53.334;6.534;2022-10-13T08:09:41;11.40;99.90
53802;DHT22;39709;53.334;6.534;2022-10-13T08:12:07;11.50;99.90
53802;DHT22;39709;53.334;6.534;2022-10-13T08:14:33;11.40;99.90
53802;DHT22;39709;53.334;6.534;2022-10-13T08:16:58;11.40;99.90
53802;DHT22;39709;53.334;6.534;2022-10-13T08:19:25;11.40;99.90
53802;DHT22;39709;53.334;6.534;2022-10-13T08:21:53;11.80;99.90
53802;DHT22;39709;53.334;6.534;2022-10-13T08:24:20;11.60;99.90
53802;DHT22;39709;53.334;6.534;2022-10-13T08:26:49;11.60;99.90
53802;DHT22;39709;53.334;6.534;2022-10-13T08:29:16;12.00;99.90
53802;DHT22;39709;53.334;6.534;2022-10-13T08:31:42;11.90;99.90
53802;DHT22;39709;53.334;6.534;2022-10-13T08:34:09;11.70;99.90
53802;DHT22;39709;53.334;6.534;2022-10-13T08:36:35;11.80;99.90
53802;DHT22;39709;53.334;6.534;2022-10-13T08:39:01;11.70;99.90
53802;DHT22;39709;53.334;6.534;2022-10-13T08:41:36;11.90;99.90
53802;DHT22;39709;53.334;6.534;2022-10-13T08:44:06;12.20;99.90
53802;DHT22;39709;53.334;6.534;2022-10-13T08:46:53;12.00;99.90
53802;DHT22;39709;53.334;6.534;2022-10-13T08:49:21;11.80;99.90
53802;DHT22;39709;53.334;6.534;2022-10-13T08:51:47;11.80;99.90
53802;DHT22;39709;53.334;6.534;2022-10-13T08:54:14;11.80;99.90
53802;DHT22;39709;53.334;6.534;2022-10-13T08:56:43;12.00;99.90
53802;DHT22;39709;53.334;6.534;2022-10-13T08:59:15;12.10;99.90
53802;DHT22;39709;53.334;6.534;2022-10-13T09:01:42;11.90;99.90
53802;DHT22;39709;53.334;6.534;2022-10-13T09:04:29;12.40;99.90
53802;DHT22;39709;53.334;6.534;2022-10-13T09:10:08;12.20;99.90
53802;DHT22;39709;53.334;6.534;2022-10-13T09:12:34;12.30;99.90
53802;DHT22;39709;53.334;6.534;2022-10-13T09:15:02;12.60;99.90
53802;DHT22;39709;53.334;6.534;2022-10-13T09:17:31;12.40;99.90
53802;DHT22;39709;53.334;6.534;2022-10-13T09:22:34;12.80;99.90
53802;DHT22;39709;53.334;6.534;2022-10-13T09:27:56;12.80;99.90
53802;DHT22;39709;53.334;6.534;2022-10-13T09:35:29;13.10;99.90
53802;DHT22;39709;53.334;6.534;2022-10-13T09:38:35;12.80;99.90
53802;DHT22;39709;53.334;6.534;2022-10-13T09:41:26;12.80;99.90
53802;DHT22;39709;53.334;6.534;2022-10-13T09:49:43;13.00;99.90
53802;DHT22;39709;53.334;6.534;2022-10-13T09:52:16;13.40;99.90
53802;DHT22;39709;53.334;6.534;2022-10-13T09:54:48;13.00;99.90
53802;DHT22;39709;53.334;6.534;2022-10-13T09:59:50;13.00;99.90
53802;DHT22;39709;53.334;6.534;2022-10-13T10:02:30;12.90;99.90
53802;DHT22;39709;53.334;6.534;2022-10-13T10:05:00;12.80;99.90
53802;DHT22;39709;53.334;6.534;2022-10-13T10:07:31;13.00;99.90
53802;DHT22;39709;53.334;6.534;2022-10-13T10:10:02;12.80;99.90
53802;DHT22;39709;53.334;6.534;2022-10-13T10:12:31;13.20;99.90
53802;DHT22;39709;53.334;6.534;2022-10-13T10:15:00;12.80;99.90
53802;DHT22;39709;53.334;6.534;2022-10-13T10:30:34;13.30;99.90
53802;DHT22;39709;53.334;6.534;2022-10-13T10:33:19;13.30;99.90
53802;DHT22;39709;53.334;6.534;2022-10-13T10:35:51;13.00;99.90
53802;DHT22;39709;53.334;6.534;2022-10-13T10:44:14;13.50;99.90
53802;DHT22;39709;53.334;6.534;2022-10-13T10:46:45;13.40;99.90
53802;DHT22;39709;53.334;6.534;2022-10-13T10:49:22;13.20;99.90
53802;DHT22;39709;53.334;6.534;2022-10-13T10:51:50;13.50;99.90
53802;DHT22;39709;53.334;6.534;2022-10-13T10:59:46;13.50;99.90
53802;DHT22;39709;53.334;6.534;2022-10-13T11:04:59;13.50;99.90
53802;DHT22;39709;53.334;6.534;2022-10-13T11:12:22;14.00;99.90
53802;DHT22;39709;53.334;6.534;2022-10-13T11:17:29;13.80;99.90
53802;DHT22;39709;53.334;6.534;2022-10-13T11:19:56;14.00;99.90
53802;DHT22;39709;53.334;6.534;2022-10-13T11:22:26;13.60;99.90
53802;DHT22;39709;53.334;6.534;2022-10-13T11:24:54;13.50;99.90
53802;DHT22;39709;53.334;6.534;2022-10-13T11:30:00;13.50;99.90
53802;DHT22;39709;53.334;6.534;2022-10-13T11:57:25;14.20;99.90
53802;DHT22;39709;53.334;6.534;2022-10-13T11:59:53;14.20;99.90
53802;DHT22;39709;53.334;6.534;2022-10-13T12:02:24;14.70;99.90
53802;DHT22;39709;53.334;6.534;2022-10-13T12:07:45;14.60;99.90
53802;DHT22;39709;53.334;6.534;2022-10-13T12:10:31;14.40;99.90
53802;DHT22;39709;53.334;6.534;2022-10-13T12:12:57;14.60;99.90
53802;DHT22;39709;53.334;6.534;2022-10-13T12:15:41;14.50;99.90
53802;DHT22;39709;53.334;6.534;2022-10-13T12:18:21;14.10;99.90
53802;DHT22;39709;53.334;6.534;2022-10-13T12:20:58;14.60;99.90
53802;DHT22;39709;53.334;6.534;2022-10-13T12:23:27;14.10;99.90
53802;DHT22;39709;53.334;6.534;2022-10-13T12:25:54;14.60;99.90
53802;DHT22;39709;53.334;6.534;2022-10-13T12:28:26;14.20;99.90
53802;DHT22;39709;53.334;6.534;2022-10-13T12:30:55;14.60;99.90
53802;DHT22;39709;53.334;6.534;2022-10-13T12:33:31;14.20;99.90
53802;DHT22;39709;53.334;6.534;2022-10-13T12:36:18;14.20;99.90
53802;DHT22;39709;53.334;6.534;2022-10-13T12:38:52;14.70;99.90
53802;DHT22;39709;53.334;6.534;2022-10-13T12:41:23;14.70;99.90
53802;DHT22;39709;53.334;6.534;2022-10-13T12:43:50;14.30;99.90
53802;DHT22;39709;53.334;6.534;2022-10-13T12:46:49;14.60;99.90
53802;DHT22;39709;53.334;6.534;2022-10-13T12:49:32;14.40;99.90
53802;DHT22;39709;53.334;6.534;2022-10-13T12:52:14;14.40;99.90
53802;DHT22;39709;53.334;6.534;2022-10-13T12:54:49;14.80;99.90
53802;DHT22;39709;53.334;6.534;2022-10-13T12:57:21;14.40;99.90
53802;DHT22;39709;53.334;6.534;2022-10-13T12:59:51;14.50;99.90
53802;DHT22;39709;53.334;6.534;2022-10-13T13:02:26;14.40;99.90
53802;DHT22;39709;53.334;6.534;2022-10-13T13:04:52;14.40;99.90
53802;DHT22;39709;53.334;6.534;2022-10-13T13:07:35;14.30;99.90
53802;DHT22;39709;53.334;6.534;2022-10-13T13:12:33;14.50;99.90
53802;DHT22;39709;53.334;6.534;2022-10-13T13:17:45;14.60;99.90
53802;DHT22;39709;53.334;6.534;2022-10-13T13:20:41;14.50;99.90
53802;DHT22;39709;53.334;6.534;2022-10-13T13:23:06;14.80;99.90
53802;DHT22;39709;53.334;6.534;2022-10-13T13:25:32;14.80;99.90
53802;DHT22;39709;53.334;6.534;2022-10-13T13:27:58;14.70;99.90
53802;DHT22;39709;53.334;6.534;2022-10-13T13:30:23;14.50;99.90
53802;DHT22;39709;53.334;6.534;2022-10-13T13:32:49;14.60;99.90
53802;DHT22;39709;53.334;6.534;2022-10-13T13:35:15;15.00;99.90
53802;DHT22;39709;53.334;6.534;2022-10-13T13:37:46;14.90;99.90
53802;DHT22;39709;53.334;6.534;2022-10-13T13:40:16;14.80;99.90
53802;DHT22;39709;53.334;6.534;2022-10-13T13:42:42;14.90;99.90
53802;DHT22;39709;53.334;6.534;2022-10-13T13:45:12;14.80;99.90
53802;DHT22;39709;53.334;6.534;2022-10-13T13:47:38;14.70;99.90
53802;DHT22;39709;53.334;6.534;2022-10-13T13:50:19;15.10;99.90
53802;DHT22;39709;53.334;6.534;2022-10-13T13:52:46;15.00;99.90
53802;DHT22;39709;53.334;6.534;2022-10-13T13:55:12;15.00;99.90
53802;DHT22;39709;53.334;6.534;2022-10-13T13:57:38;14.70;99.90
53802;DHT22;39709;53.334;6.534;2022-10-13T14:00:04;14.90;99.90
53802;DHT22;39709;53.334;6.534;2022-10-13T14:02:30;14.40;99.90
53802;DHT22;39709;53.334;6.534;2022-10-13T14:04:56;14.70;99.90
53802;DHT22;39709;53.334;6.534;2022-10-13T14:07:21;14.80;99.90
53802;DHT22;39709;53.334;6.534;2022-10-13T14:09:47;14.20;99.90
53802;DHT22;39709;53.334;6.534;2022-10-13T14:12:13;14.20;99.90
53802;DHT22;39709;53.334;6.534;2022-10-13T14:14:38;14.40;99.90
53802;DHT22;39709;53.334;6.534;2022-10-13T14:17:04;14.40;99.90
53802;DHT22;39709;53.334;6.534;2022-10-13T14:19:31;14.20;99.90
53802;DHT22;39709;53.334;6.534;2022-10-13T14:21:58;14.30;99.90
53802;DHT22;39709;53.334;6.534;2022-10-13T14:24:24;14.10;99.90
53802;DHT22;39709;53.334;6.534;2022-10-13T14:26:49;14.40;99.90
53802;DHT22;39709;53.334;6.534;2022-10-13T14:29:15;14.40;99.90
53802;DHT22;39709;53.334;6.534;2022-10-13T14:31:41;14.30;99.90
53802;DHT22;39709;53.334;6.534;2022-10-13T14:34:07;14.20;99.90
53802;DHT22;39709;53.334;6.534;2022-10-13T14:36:33;14.30;99.90
53802;DHT22;39709;53.334;6.534;2022-10-13T14:38:58;14.30;99.90
53802;DHT22;39709;53.334;6.534;2022-10-13T14:41:24;14.00;99.90
53802;DHT22;39709;53.334;6.534;2022-10-13T14:43:54;14.20;99.90
53802;DHT22;39709;53.334;6.534;2022-10-13T14:46:20;13.90;99.90
53802;DHT22;39709;53.334;6.534;2022-10-13T14:48:46;13.90;99.90
53802;DHT22;39709;53.334;6.534;2022-10-13T14:51:12;14.00;99.90
53802;DHT22;39709;53.334;6.534;2022-10-13T14:53:41;13.80;99.90
53802;DHT22;39709;53.334;6.534;2022-10-13T14:56:22;14.20;99.90
53802;DHT22;39709;53.334;6.534;2022-10-13T14:58:49;14.20;99.90
53802;DHT22;39709;53.334;6.534;2022-10-13T15:01:17;13.80;99.90
53802;DHT22;39709;53.334;6.534;2022-10-13T15:03:44;13.70;99.90
53802;DHT22;39709;53.334;6.534;2022-10-13T15:06:13;13.60;99.90
53802;DHT22;39709;53.334;6.534;2022-10-13T15:08:39;13.90;99.90
53802;DHT22;39709;53.334;6.534;2022-10-13T15:11:05;14.10;99.90
53802;DHT22;39709;53.334;6.534;2022-10-13T15:13:31;13.60;99.90
53802;DHT22;39709;53.334;6.534;2022-10-13T15:15:57;13.90;99.90
53802;DHT22;39709;53.334;6.534;2022-10-13T15:18:26;13.60;99.90
53802;DHT22;39709;53.334;6.534;2022-10-13T15:20:52;13.60;99.90
53802;DHT22;39709;53.334;6.534;2022-10-13T15:23:18;14.00;99.90
53802;DHT22;39709;53.334;6.534;2022-10-13T15:25:50;13.60;99.90
53802;DHT22;39709;53.334;6.534;2022-10-13T15:28:16;14.00;99.90
53802;DHT22;39709;53.334;6.534;2022-10-13T15:30:42;13.70;99.90
53802;DHT22;39709;53.334;6.534;2022-10-13T15:33:08;13.80;99.90
53802;DHT22;39709;53.334;6.534;2022-10-13T15:35:33;13.90;99.90
53802;DHT22;39709;53.334;6.534;2022-10-13T15:37:59;13.30;99.90
53802;DHT22;39709;53.334;6.534;2022-10-13T15:40:25;13.70;99.90
53802;DHT22;39709;53.334;6.534;2022-10-13T15:42:52;13.80;99.90
53802;DHT22;39709;53.334;6.534;2022-10-13T15:45:18;13.50;99.90
53802;DHT22;39709;53.334;6.534;2022-10-13T15:47:43;13.50;99.90
53802;DHT22;39709;53.334;6.534;2022-10-13T15:50:09;13.30;99.90
53802;DHT22;39709;53.334;6.534;2022-10-13T15:52:39;13.50;99.90
53802;DHT22;39709;53.334;6.534;2022-10-13T15:55:06;13.40;99.90
53802;DHT22;39709;53.334;6.534;2022-10-13T15:57:32;13.20;99.90
53802;DHT22;39709;53.334;6.534;2022-10-13T15:59:58;13.50;99.90
53802;DHT22;39709;53.334;6.534;2022-10-13T16:02:24;13.70;99.90
53802;DHT22;39709;53.334;6.534;2022-10-13T16:04:50;13.10;99.90
53802;DHT22;39709;53.334;6.534;2022-10-13T16:07:16;13.20;99.90
53802;DHT22;39709;53.334;6.534;2022-10-13T16:09:43;13.10;99.90
53802;DHT22;39709;53.334;6.534;2022-10-13T16:12:09;13.40;99.90
53802;DHT22;39709;53.334;6.534;2022-10-13T16:14:35;13.10;99.90
53802;DHT22;39709;53.334;6.534;2022-10-13T16:17:04;13.10;99.90
53802;DHT22;39709;53.334;6.534;2022-10-13T16:19:29;13.30;99.90
53802;DHT22;39709;53.334;6.534;2022-10-13T16:21:55;12.90;99.90
53802;DHT22;39709;53.334;6.534;2022-10-13T16:24:21;13.00;99.90
53802;DHT22;39709;53.334;6.534;2022-10-13T16:26:46;13.20;99.90
53802;DHT22;39709;53.334;6.534;2022-10-13T16:29:12;13.30;99.90
53802;DHT22;39709;53.334;6.534;2022-10-13T16:31:38;12.90;99.90
53802;DHT22;39709;53.334;6.534;2022-10-13T16:34:04;12.80;99.90
53802;DHT22;39709;53.334;6.534;2022-10-13T16:36:30;13.10;99.90
53802;DHT22;39709;53.334;6.534;2022-10-13T16:38:55;13.10;99.90
53802;DHT22;39709;53.334;6.534;2022-10-13T16:41:21;12.70;99.90
53802;DHT22;39709;53.334;6.534;2022-10-13T16:43:48;13.20;99.90
53802;DHT22;39709;53.334;6.534;2022-10-13T16:46:16;12.90;99.90
53802;DHT22;39709;53.334;6.534;2022-10-13T16:48:44;12.90;99.90
53802;DHT22;39709;53.334;6.534;2022-10-13T16:51:19;13.00;99.90
53802;DHT22;39709;53.334;6.534;2022-10-13T16:53:49;13.10;99.90
53802;DHT22;39709;53.334;6.534;2022-10-13T16:56:15;12.80;99.90
53802;DHT22;39709;53.334;6.534;2022-10-13T16:58:47;12.70;99.90
53802;DHT22;39709;53.334;6.534;2022-10-13T17:01:13;12.90;99.90
53802;DHT22;39709;53.334;6.534;2022-10-13T17:03:41;12.80;99.90
53802;DHT22;39709;53.334;6.534;2022-10-13T17:06:07;12.40;99.90
53802;DHT22;39709;53.334;6.534;2022-10-13T17:08:33;12.50;99.90
53802;DHT22;39709;53.334;6.534;2022-10-13T17:10:59;12.50;99.90
53802;DHT22;39709;53.334;6.534;2022-10-13T17:13:25;12.80;99.90
53802;DHT22;39709;53.334;6.534;2022-10-13T17:15:52;12.40;99.90
53802;DHT22;39709;53.334;6.534;2022-10-13T17:18:18;12.70;99.90
53802;DHT22;39709;53.334;6.534;2022-10-13T17:23:16;12.60;99.90
53802;DHT22;39709;53.334;6.534;2022-10-13T17:25:42;12.50;99.90
53802;DHT22;39709;53.334;6.534;2022-10-13T17:28:07;12.40;99.90
53802;DHT22;39709;53.334;6.534;2022-10-13T17:30:33;12.30;99.90
53802;DHT22;39709;53.334;6.534;2022-10-13T17:32:59;12.60;99.90
53802;DHT22;39709;53.334;6.534;2022-10-13T17:35:24;12.70;99.90
53802;DHT22;39709;53.334;6.534;2022-10-13T17:37:50;12.40;99.90
53802;DHT22;39709;53.334;6.534;2022-10-13T17:40:16;12.70;99.90
53802;DHT22;39709;53.334;6.534;2022-10-13T17:42:41;12.50;99.90
53802;DHT22;39709;53.334;6.534;2022-10-13T17:45:08;12.40;99.90
53802;DHT22;39709;53.334;6.534;2022-10-13T17:47:33;12.40;99.90
53802;DHT22;39709;53.334;6.534;2022-10-13T17:49:59;12.50;99.90
53802;DHT22;39709;53.334;6.534;2022-10-13T17:52:25;12.80;99.90